Time;durP1;ratioP1;P1;durP2;ratioP2;P2;SDS_P1;SDS_P2;PMS_P1;PMS_P2;Temp;Humidity;BMP_temperature;BMP_pressure;BME280_temperature;BME280_humidity;BME280_pressure;Samples;Min_cycle;Max_cycle;Signal;HPM_P1;HPM_P2
2024/03/10 00:02:00;;;;;;;17.45;8.95;;;2.90;93.60;;;;;;5043020;28;20112;-64
2024/03/10 00:04:25;;;;;;;17.42;8.55;;;2.90;93.90;;;;;;5036595;28;20333;-65
2024/03/10 00:06:51;;;;;;;17.80;8.82;;;2.90;93.90;;;;;;5035440;28;20255;-64
2024/03/10 00:09:16;;;;;;;17.85;8.88;;;2.90;93.90;;;;;;5037780;28;20090;-64
2024/03/10 00:11:43;;;;;;;21.55;9.77;;;2.90;94.10;;;;;;5041631;28;20037;-64
2024/03/10 00:14:09;;;;;;;18.83;9.57;;;2.90;94.00;;;;;;5036825;28;20112;-64
2024/03/10 00:16:35;;;;;;;19.85;9.00;;;2.90;94.10;;;;;;5036698;28;20544;-65
2024/03/10 00:19:01;;;;;;;16.75;8.05;;;2.90;94.10;;;;;;5037754;28;20048;-66
2024/03/10 00:21:27;;;;;;;18.30;9.07;;;3.00;94.30;;;;;;5034698;28;20032;-65
2024/03/10 00:23:52;;;;;;;15.90;8.45;;;3.00;94.10;;;;;;5045414;28;20044;-64
2024/03/10 00:26:17;;;;;;;19.63;8.00;;;3.00;94.10;;;;;;5034620;28;20456;-65
2024/03/10 00:28:44;;;;;;;18.10;8.38;;;2.90;94.10;;;;;;5033164;28;20093;-64
2024/03/10 00:31:10;;;;;;;20.23;8.48;;;3.00;94.30;;;;;;5029411;28;20361;-64
2024/03/10 00:33:37;;;;;;;14.98;8.43;;;3.00;94.20;;;;;;5034558;28;20033;-64
2024/03/10 00:36:06;;;;;;;15.73;7.55;;;2.90;94.10;;;;;;5033333;28;20320;-64
2024/03/10 00:38:32;;;;;;;16.58;8.88;;;2.80;94.20;;;;;;5035868;28;20461;-65
2024/03/10 00:40:57;;;;;;;19.55;10.18;;;2.80;94.40;;;;;;5035867;28;20113;-64
2024/03/10 00:43:23;;;;;;;19.23;10.32;;;2.80;94.60;;;;;;5037392;28;20408;-64
2024/03/10 00:45:52;;;;;;;19.70;8.80;;;2.80;94.60;;;;;;5029627;28;20037;-65
2024/03/10 00:48:18;;;;;;;21.35;9.50;;;2.80;94.50;;;;;;5037537;28;20445;-64
2024/03/10 00:50:46;;;;;;;19.02;8.38;;;2.80;94.50;;;;;;5036273;28;20037;-64
2024/03/10 00:53:12;;;;;;;16.85;8.57;;;2.70;94.40;;;;;;5037295;28;20036;-65
2024/03/10 00:55:38;;;;;;;18.55;9.05;;;2.80;94.70;;;;;;5033246;28;20369;-65
2024/03/10 00:58:04;;;;;;;18.65;9.43;;;2.80;95.00;;;;;;5030471;28;20492;-64
2024/03/10 01:00:32;;;;;;;19.80;8.73;;;2.80;94.70;;;;;;5032698;28;20090;-65
2024/03/10 01:02:58;;;;;;;18.23;8.07;;;2.80;94.70;;;;;;5032527;28;20025;-66
2024/03/10 01:05:24;;;;;;;16.80;7.97;;;2.80;94.80;;;;;;5028624;28;20071;-65
2024/03/10 01:07:49;;;;;;;18.73;8.68;;;2.90;94.70;;;;;;5034098;28;20120;-65
2024/03/10 01:10:15;;;;;;;16.73;9.18;;;2.80;94.70;;;;;;5045015;28;20025;-65
2024/03/10 01:12:41;;;;;;;15.68;8.63;;;2.80;94.70;;;;;;5032078;28;20049;-66
2024/03/10 01:15:07;;;;;;;19.33;8.55;;;2.70;94.60;;;;;;5037416;28;20094;-65
2024/03/10 01:17:33;;;;;;;18.90;9.40;;;2.70;94.80;;;;;;5033183;28;20421;-65
2024/03/10 01:19:58;;;;;;;17.58;8.50;;;2.70;95.10;;;;;;5040346;28;20143;-66
2024/03/10 01:22:27;;;;;;;21.02;9.10;;;2.60;94.90;;;;;;5029494;28;20484;-66
2024/03/10 01:24:54;;;;;;;22.52;8.05;;;2.60;95.20;;;;;;5041320;28;20033;-68
2024/03/10 01:27:19;;;;;;;20.05;9.95;;;2.60;95.10;;;;;;5056602;28;20179;-65
2024/03/10 01:29:45;;;;;;;15.63;8.23;;;2.60;95.30;;;;;;5037924;28;20537;-65
2024/03/10 01:32:10;;;;;;;20.02;9.13;;;2.60;95.20;;;;;;5039969;28;20149;-65
2024/03/10 01:34:36;;;;;;;20.17;8.90;;;2.60;95.40;;;;;;5035842;28;20497;-66
2024/03/10 01:37:02;;;;;;;18.65;8.98;;;2.60;95.50;;;;;;5034940;28;20028;-67
2024/03/10 01:39:28;;;;;;;18.55;8.82;;;2.60;95.50;;;;;;5035964;28;20032;-65
2024/03/10 01:41:54;;;;;;;15.10;8.38;;;2.60;95.50;;;;;;5035195;28;20072;-66
2024/03/10 01:44:20;;;;;;;20.63;8.93;;;2.60;95.80;;;;;;5036588;28;20074;-65
2024/03/10 01:46:47;;;;;;;20.02;8.70;;;2.60;95.60;;;;;;5034720;28;20388;-65
2024/03/10 01:49:13;;;;;;;19.55;10.05;;;2.60;95.60;;;;;;5040477;28;20108;-66
2024/03/10 01:51:41;;;;;;;22.85;8.52;;;2.60;95.60;;;;;;5030819;28;20422;-66
2024/03/10 01:54:09;;;;;;;16.75;8.05;;;2.60;95.70;;;;;;5037009;28;20109;-65
2024/03/10 01:56:36;;;;;;;18.95;8.43;;;2.60;95.60;;;;;;5041775;28;20078;-65
2024/03/10 01:59:02;;;;;;;16.88;7.55;;;2.50;95.80;;;;;;5033590;28;20104;-65
2024/03/10 02:01:28;;;;;;;21.67;10.05;;;2.60;95.80;;;;;;5037222;28;20108;-65
2024/03/10 02:03:54;;;;;;;17.95;8.95;;;2.50;95.80;;;;;;5034077;28;20040;-65
2024/03/10 02:06:21;;;;;;;17.05;8.05;;;2.50;95.80;;;;;;5041640;28;20072;-66
2024/03/10 02:08:46;;;;;;;18.83;8.38;;;2.30;95.70;;;;;;5034054;28;20038;-65
2024/03/10 02:11:12;;;;;;;20.77;8.18;;;2.30;96.00;;;;;;5037101;28;20530;-66
2024/03/10 02:13:38;;;;;;;20.77;8.57;;;2.50;96.10;;;;;;5039376;28;20139;-65
2024/03/10 02:16:05;;;;;;;17.38;7.78;;;2.50;96.10;;;;;;5029470;28;20103;-66
2024/03/10 02:18:32;;;;;;;20.02;8.68;;;2.50;96.00;;;;;;5042687;28;20037;-67
2024/03/10 02:20:58;;;;;;;18.25;8.50;;;2.50;96.20;;;;;;5047352;28;20075;-65
2024/03/10 02:23:33;;;;;;;20.67;9.07;;;2.50;96.10;;;;;;5038752;28;20049;-66
2024/03/10 02:26:00;;;;;;;20.05;7.85;;;2.60;96.20;;;;;;5039726;28;20025;-65
2024/03/10 02:28:46;;;;;;;18.35;8.73;;;2.60;96.20;;;;;;5041600;28;20460;-66
2024/03/10 02:47:51;;;;;;;18.00;8.23;;;2.50;96.20;;;;;;5041406;28;20519;-65
2024/03/10 02:50:17;;;;;;;15.88;8.23;;;2.50;96.30;;;;;;5046242;28;20104;-65
2024/03/10 02:52:42;;;;;;;17.85;8.82;;;2.60;96.40;;;;;;5041872;28;20460;-66
2024/03/10 02:55:11;;;;;;;23.58;9.98;;;2.60;96.30;;;;;;5040955;28;20456;-65
2024/03/10 02:57:37;;;;;;;16.95;8.02;;;2.60;96.40;;;;;;5046314;28;20067;-65
2024/03/10 03:00:03;;;;;;;20.85;9.90;;;2.60;96.20;;;;;;5041359;28;20045;-65
2024/03/10 03:02:29;;;;;;;22.83;9.32;;;2.60;96.10;;;;;;5046085;28;20091;-65
2024/03/10 03:04:55;;;;;;;19.33;9.13;;;2.60;96.30;;;;;;5042755;28;20096;-65
2024/03/10 03:07:21;;;;;;;14.95;8.57;;;2.60;96.10;;;;;;5045941;28;20512;-66
2024/03/10 03:09:47;;;;;;;20.10;8.90;;;2.60;96.30;;;;;;5039185;28;20036;-66
2024/03/10 03:12:13;;;;;;;17.40;8.40;;;2.60;96.30;;;;;;5046497;28;20025;-66
2024/03/10 03:14:39;;;;;;;18.45;8.13;;;2.60;96.20;;;;;;5042341;28;20049;-65
2024/03/10 03:17:05;;;;;;;21.27;9.50;;;2.60;96.20;;;;;;5045369;28;20445;-65
2024/03/10 03:19:32;;;;;;;19.27;8.38;;;2.60;96.20;;;;;;5043547;28;20040;-66
2024/03/10 03:22:00;;;;;;;19.33;8.13;;;2.60;96.00;;;;;;5039316;28;20144;-66
2024/03/10 03:24:25;;;;;;;21.00;9.15;;;2.60;96.10;;;;;;5040035;28;20318;-65
2024/03/10 03:26:53;;;;;;;16.50;8.18;;;2.50;96.20;;;;;;5041570;28;20119;-66
2024/03/10 03:29:19;;;;;;;25.75;8.77;;;2.50;96.30;;;;;;5038664;28;20025;-66
2024/03/10 03:31:45;;;;;;;22.30;10.02;;;2.60;96.20;;;;;;5034474;28;20438;-65
2024/03/10 03:34:11;;;;;;;19.67;9.32;;;2.60;96.40;;;;;;5040854;28;20120;-66
2024/03/10 03:36:36;;;;;;;18.77;9.20;;;2.50;96.20;;;;;;5041221;28;20457;-66
2024/03/10 03:39:05;;;;;;;17.40;9.05;;;2.50;96.30;;;;;;5030353;28;20041;-66
2024/03/10 03:41:31;;;;;;;19.40;9.02;;;2.60;96.50;;;;;;5042753;28;20033;-66
2024/03/10 03:43:56;;;;;;;18.80;8.88;;;2.60;96.50;;;;;;5038071;28;20047;-65
2024/03/10 03:46:22;;;;;;;18.58;7.80;;;2.60;96.50;;;;;;5040401;28;20040;-65
2024/03/10 03:48:47;;;;;;;20.50;9.23;;;2.60;96.40;;;;;;5038618;28;20124;-66
2024/03/10 03:51:13;;;;;;;22.40;8.65;;;2.60;96.50;;;;;;5033731;28;20381;-65
2024/03/10 03:53:38;;;;;;;18.33;8.50;;;2.50;96.40;;;;;;5033305;28;20060;-65
2024/03/10 03:56:04;;;;;;;17.38;8.43;;;2.60;96.60;;;;;;5038251;28;20098;-66
2024/03/10 03:58:29;;;;;;;17.10;9.35;;;2.60;96.60;;;;;;5038257;28;20440;-65
2024/03/10 04:00:55;;;;;;;20.88;9.60;;;2.60;96.60;;;;;;5039579;28;20033;-65
2024/03/10 04:03:20;;;;;;;18.67;8.68;;;2.50;96.60;;;;;;5044332;28;20151;-66
2024/03/10 04:05:46;;;;;;;17.88;8.80;;;2.50;96.60;;;;;;5036827;28;20096;-66
2024/03/10 04:08:12;;;;;;;18.63;8.68;;;2.50;96.60;;;;;;5030939;28;20037;-67
2024/03/10 04:10:37;;;;;;;22.52;9.43;;;2.50;96.50;;;;;;5036969;28;20047;-65
2024/03/10 04:13:05;;;;;;;20.00;9.98;;;2.50;96.50;;;;;;5040539;28;20047;-65
2024/03/10 04:15:35;;;;;;;17.60;8.35;;;2.50;96.80;;;;;;5040438;28;20461;-66
2024/03/10 04:18:04;;;;;;;17.55;8.20;;;2.40;96.60;;;;;;5034385;28;20105;-66
2024/03/10 04:20:31;;;;;;;19.70;8.07;;;2.30;96.60;;;;;;5034866;28;20112;-68
2024/03/10 04:22:56;;;;;;;19.65;9.02;;;2.40;96.70;;;;;;5036003;28;20025;-66
2024/03/10 04:25:22;;;;;;;20.88;9.48;;;2.40;97.00;;;;;;5036778;28;20060;-65
2024/03/10 04:27:48;;;;;;;17.17;8.65;;;2.40;96.80;;;;;;5035742;28;20380;-64
2024/03/10 04:30:13;;;;;;;22.00;9.05;;;2.40;97.00;;;;;;5036357;28;20048;-65
2024/03/10 04:32:38;;;;;;;17.83;9.32;;;2.40;96.90;;;;;;5039033;28;20090;-65
2024/03/10 04:35:05;;;;;;;17.52;8.95;;;2.40;96.90;;;;;;5038047;28;20125;-64
2024/03/10 04:37:30;;;;;;;20.52;9.38;;;2.50;96.90;;;;;;5041967;28;20117;-67
2024/03/10 04:39:56;;;;;;;19.30;7.93;;;2.40;96.90;;;;;;5037513;28;20120;-65
2024/03/10 04:42:21;;;;;;;21.05;9.32;;;2.60;97.00;;;;;;5037003;28;20092;-65
2024/03/10 04:44:47;;;;;;;18.73;9.02;;;2.60;96.80;;;;;;5032896;28;20021;-67
2024/03/10 04:47:12;;;;;;;18.33;8.93;;;2.60;96.70;;;;;;5035267;28;20049;-65
2024/03/10 04:49:39;;;;;;;20.30;9.45;;;2.60;96.80;;;;;;5036413;28;20040;-66
2024/03/10 04:52:05;;;;;;;20.15;8.77;;;2.60;96.80;;;;;;5034490;28;20117;-64
2024/03/10 04:54:31;;;;;;;16.30;8.77;;;2.60;96.80;;;;;;5029118;28;20422;-66
2024/03/10 04:56:56;;;;;;;17.42;8.82;;;2.60;96.70;;;;;;5038547;28;20029;-65
2024/03/10 04:59:22;;;;;;;20.00;8.43;;;2.60;96.90;;;;;;5034781;28;20077;-65
2024/03/10 05:01:47;;;;;;;15.68;7.90;;;2.60;96.60;;;;;;5036966;28;20397;-65
2024/03/10 05:04:15;;;;;;;18.20;8.35;;;2.50;96.70;;;;;;5031598;28;20048;-66
2024/03/10 05:06:41;;;;;;;17.35;8.13;;;2.50;96.80;;;;;;5039282;28;20394;-65
2024/03/10 05:09:08;;;;;;;18.08;9.32;;;2.60;96.80;;;;;;5029292;28;20026;-65
2024/03/10 05:11:33;;;;;;;20.25;9.13;;;2.60;96.80;;;;;;5027982;28;20036;-64
2024/03/10 05:13:59;;;;;;;21.27;8.85;;;2.60;96.80;;;;;;5033793;28;20037;-65
2024/03/10 05:16:25;;;;;;;16.30;8.52;;;2.60;96.80;;;;;;5037193;28;20255;-65
2024/03/10 05:18:50;;;;;;;18.13;8.55;;;2.60;96.80;;;;;;5033766;28;20112;-65
2024/03/10 05:21:15;;;;;;;21.85;9.65;;;2.50;96.80;;;;;;5035533;28;20049;-65
2024/03/10 05:23:41;;;;;;;20.00;9.70;;;2.60;97.00;;;;;;5032932;28;20176;-66
2024/03/10 05:26:06;;;;;;;17.73;9.77;;;2.50;96.80;;;;;;5031975;28;20037;-65
2024/03/10 05:28:32;;;;;;;15.68;8.25;;;2.60;96.90;;;;;;5027423;28;20041;-65
2024/03/10 05:30:58;;;;;;;21.90;9.05;;;2.60;96.90;;;;;;5033340;28;20346;-64
2024/03/10 05:33:23;;;;;;;19.38;8.40;;;2.50;96.80;;;;;;5038385;28;20063;-65
2024/03/10 05:35:49;;;;;;;16.30;8.10;;;2.40;96.70;;;;;;5034066;28;20073;-63
2024/03/10 05:38:15;;;;;;;18.65;9.13;;;2.40;96.90;;;;;;5030358;28;20401;-64
2024/03/10 05:40:41;;;;;;;20.10;9.23;;;2.50;96.90;;;;;;5033677;28;20035;-63
2024/03/10 05:43:08;;;;;;;17.92;9.45;;;2.50;96.90;;;;;;5034648;28;20472;-63
2024/03/10 05:45:33;;;;;;;17.98;8.82;;;2.30;96.90;;;;;;5035404;28;20033;-63
2024/03/10 05:47:59;;;;;;;21.15;8.20;;;2.40;97.10;;;;;;5038107;28;20032;-63
2024/03/10 05:50:25;;;;;;;21.63;10.13;;;2.50;97.10;;;;;;5031665;28;20041;-64
2024/03/10 05:52:52;;;;;;;19.48;9.75;;;2.40;96.90;;;;;;5034502;28;20152;-63
2024/03/10 05:55:17;;;;;;;17.73;8.30;;;2.50;97.00;;;;;;5033474;28;20730;-63
2024/03/10 05:57:43;;;;;;;17.80;8.95;;;2.50;97.10;;;;;;5033038;28;20037;-64
2024/03/10 06:00:15;;;;;;;15.82;8.55;;;2.40;97.00;;;;;;5035798;28;20029;-63
2024/03/10 06:02:48;;;;;;;21.70;9.48;;;2.30;97.00;;;;;;5034651;28;20036;-63
2024/03/10 06:05:13;;;;;;;17.92;8.82;;;2.40;97.00;;;;;;5033641;28;20057;-63
2024/03/10 06:07:41;;;;;;;19.15;9.05;;;2.30;97.10;;;;;;5034393;28;20072;-63
2024/03/10 06:10:06;;;;;;;18.90;8.50;;;2.40;97.30;;;;;;5032028;28;20057;-64
2024/03/10 06:12:32;;;;;;;21.30;9.52;;;2.50;97.30;;;;;;5032513;28;20053;-63
2024/03/10 06:14:58;;;;;;;14.88;7.47;;;2.50;97.20;;;;;;5038432;28;20452;-64
2024/03/10 06:17:30;;;;;;;18.08;9.15;;;2.50;97.20;;;;;;5032211;28;20026;-63
2024/03/10 06:25:28;;;;;;;18.60;8.98;;;2.60;97.00;;;;;;5042819;28;20031;-62
2024/03/10 06:27:56;;;;;;;19.23;8.63;;;2.60;97.00;;;;;;5037247;28;20473;-64
2024/03/10 06:30:23;;;;;;;21.77;8.95;;;2.60;97.00;;;;;;5033256;28;20040;-64
2024/03/10 06:32:51;;;;;;;21.63;9.60;;;2.70;97.00;;;;;;5038035;28;20484;-63
2024/03/10 06:35:17;;;;;;;18.73;9.70;;;2.80;96.80;;;;;;5032750;28;20500;-63
2024/03/10 06:37:46;;;;;;;18.77;8.48;;;2.80;96.80;;;;;;5034675;28;20147;-63
2024/03/10 06:40:11;;;;;;;20.77;9.15;;;2.80;96.70;;;;;;5036353;28;20038;-63
2024/03/10 06:42:37;;;;;;;20.85;9.77;;;2.90;96.60;;;;;;5031918;28;20453;-63
2024/03/10 06:45:05;;;;;;;20.75;8.93;;;3.00;96.40;;;;;;5037289;28;20045;-63
2024/03/10 06:47:31;;;;;;;21.17;9.20;;;3.00;96.30;;;;;;5030699;28;20021;-65
2024/03/10 06:49:57;;;;;;;21.38;10.30;;;3.10;96.30;;;;;;5036751;28;20059;-63
2024/03/10 06:52:22;;;;;;;19.38;9.05;;;3.10;96.30;;;;;;5033515;28;20064;-64
2024/03/10 06:54:48;;;;;;;18.67;8.73;;;3.10;96.20;;;;;;5032831;28;20068;-64
2024/03/10 06:57:13;;;;;;;19.08;9.40;;;3.10;96.10;;;;;;5029983;28;20063;-63
2024/03/10 06:59:41;;;;;;;17.17;8.50;;;3.20;96.00;;;;;;5028717;28;20026;-64
2024/03/10 07:02:11;;;;;;;21.08;10.00;;;3.30;95.90;;;;;;5042712;28;20112;-63
2024/03/10 07:04:38;;;;;;;16.23;8.52;;;3.40;95.70;;;;;;5035945;28;20516;-64
2024/03/10 07:07:04;;;;;;;18.98;8.38;;;3.50;95.60;;;;;;5037750;28;20064;-63
2024/03/10 07:09:30;;;;;;;20.92;10.30;;;3.60;95.50;;;;;;5037599;28;20068;-63
2024/03/10 07:11:55;;;;;;;24.33;10.45;;;3.60;95.20;;;;;;5041971;28;20060;-63
2024/03/10 07:14:21;;;;;;;20.17;9.40;;;3.70;95.00;;;;;;5029433;28;20037;-63
2024/03/10 07:16:49;;;;;;;22.00;10.18;;;3.80;95.10;;;;;;5038161;28;20036;-66
2024/03/10 07:19:18;;;;;;;19.83;9.25;;;3.90;94.50;;;;;;5034109;28;20527;-63
2024/03/10 07:21:44;;;;;;;18.77;8.82;;;4.00;94.20;;;;;;5036508;28;20087;-62
2024/03/10 07:24:10;;;;;;;21.08;9.18;;;4.10;94.20;;;;;;5038019;28;20140;-63
2024/03/10 07:26:35;;;;;;;20.13;8.90;;;4.10;94.00;;;;;;5034132;28;20493;-63
2024/03/10 07:29:01;;;;;;;18.38;8.45;;;4.10;94.00;;;;;;5038490;28;20037;-65
2024/03/10 07:31:27;;;;;;;19.88;9.40;;;4.20;93.70;;;;;;5038848;28;20133;-64
2024/03/10 07:33:53;;;;;;;18.23;9.02;;;4.30;93.60;;;;;;5046134;28;20064;-64
2024/03/10 07:36:19;;;;;;;20.52;8.88;;;4.30;93.40;;;;;;5041683;28;20026;-65
2024/03/10 07:38:45;;;;;;;19.33;8.85;;;4.40;93.10;;;;;;5042575;28;20053;-65
2024/03/10 07:41:10;;;;;;;19.50;9.52;;;4.60;93.20;;;;;;5033316;28;20076;-64
2024/03/10 07:43:36;;;;;;;18.52;9.35;;;4.60;92.70;;;;;;5039988;28;20117;-64
2024/03/10 07:46:05;;;;;;;17.70;9.18;;;4.70;92.60;;;;;;5042359;28;20053;-64
2024/03/10 07:48:32;;;;;;;16.10;8.10;;;4.80;92.70;;;;;;5036195;28;20560;-64
2024/03/10 07:50:58;;;;;;;17.85;9.20;;;4.90;92.00;;;;;;5044085;28;20033;-65
2024/03/10 07:53:23;;;;;;;18.33;8.63;;;5.00;91.70;;;;;;5037256;28;20030;-64
2024/03/10 07:55:49;;;;;;;16.95;9.93;;;5.10;91.40;;;;;;5035679;28;20496;-64
2024/03/10 07:58:14;;;;;;;17.08;8.68;;;5.10;90.90;;;;;;5036304;28;20037;-64
2024/03/10 08:00:40;;;;;;;18.50;8.68;;;5.10;90.80;;;;;;5046071;28;20048;-64
2024/03/10 08:03:05;;;;;;;18.00;9.20;;;5.20;90.90;;;;;;5031649;28;20073;-64
2024/03/10 08:05:31;;;;;;;22.42;8.88;;;5.30;90.40;;;;;;5038455;28;20121;-65
2024/03/10 08:07:56;;;;;;;20.25;9.82;;;5.50;90.20;;;;;;5038994;28;20034;-64
2024/03/10 08:10:23;;;;;;;17.88;8.70;;;5.60;90.10;;;;;;5046187;28;20048;-66
2024/03/10 08:12:49;;;;;;;15.32;7.78;;;5.70;90.00;;;;;;5041535;28;20302;-62
2024/03/10 08:15:18;;;;;;;16.50;8.73;;;5.90;89.20;;;;;;5042324;28;20044;-62
2024/03/10 08:17:44;;;;;;;20.00;8.93;;;6.10;89.50;;;;;;5038197;28;20123;-62
2024/03/10 08:20:13;;;;;;;17.98;9.63;;;5.90;88.60;;;;;;5039785;28;20136;-63
2024/03/10 08:22:41;;;;;;;17.40;8.85;;;6.10;88.40;;;;;;5034427;28;20029;-63
2024/03/10 08:25:07;;;;;;;18.55;8.43;;;6.30;87.70;;;;;;5046491;28;20080;-62
2024/03/10 08:27:35;;;;;;;15.88;7.88;;;6.60;87.90;;;;;;5035753;28;20038;-62
2024/03/10 08:30:03;;;;;;;17.08;9.20;;;6.70;87.10;;;;;;5033105;28;20033;-63
2024/03/10 08:32:29;;;;;;;18.88;9.50;;;6.80;86.40;;;;;;5039964;28;20021;-62
2024/03/10 08:34:55;;;;;;;18.58;8.75;;;6.90;86.00;;;;;;5038700;28;20043;-62
2024/03/10 08:37:21;;;;;;;14.88;7.40;;;7.00;86.00;;;;;;5036332;28;20111;-62
2024/03/10 08:39:56;;;;;;;15.32;7.35;;;7.10;85.60;;;;;;5040253;28;20520;-63
2024/03/10 08:42:24;;;;;;;17.13;8.50;;;7.10;85.00;;;;;;5033473;28;20045;-63
2024/03/10 08:44:51;;;;;;;16.73;8.68;;;7.30;84.80;;;;;;5051868;28;20041;-63
2024/03/10 08:47:16;;;;;;;15.02;9.13;;;7.50;85.40;;;;;;5029761;28;20025;-62
2024/03/10 08:49:42;;;;;;;15.63;8.40;;;7.70;83.60;;;;;;5036055;28;20101;-65
2024/03/10 08:52:08;;;;;;;15.95;8.18;;;8.10;84.30;;;;;;5032087;28;20072;-62
2024/03/10 08:54:36;;;;;;;15.48;8.40;;;7.70;82.80;;;;;;5032790;28;20029;-62
2024/03/10 08:57:04;;;;;;;15.02;7.15;;;8.00;83.20;;;;;;5046441;28;20696;-63
2024/03/10 08:59:30;;;;;;;17.73;8.30;;;8.10;82.80;;;;;;5037024;28;20040;-62
2024/03/10 09:01:56;;;;;;;16.88;8.43;;;8.00;81.70;;;;;;5036022;28;20425;-64
2024/03/10 09:04:23;;;;;;;17.65;7.68;;;8.00;82.20;;;;;;5037962;28;20039;-63
2024/03/10 09:06:49;;;;;;;16.65;7.97;;;8.10;82.20;;;;;;5032563;28;20021;-63
2024/03/10 09:09:18;;;;;;;14.57;7.90;;;8.50;81.70;;;;;;5040240;28;20033;-63
2024/03/10 09:11:48;;;;;;;16.60;8.80;;;8.30;81.50;;;;;;5027625;28;20049;-63
2024/03/10 09:14:13;;;;;;;15.50;8.30;;;8.30;80.90;;;;;;5032085;28;20022;-63
2024/03/10 09:16:39;;;;;;;17.85;8.07;;;8.50;81.00;;;;;;5036922;28;20048;-63
2024/03/10 09:19:05;;;;;;;15.90;9.60;;;8.30;80.60;;;;;;5031751;28;20104;-63
2024/03/10 09:21:33;;;;;;;16.52;8.27;;;8.30;81.10;;;;;;5029798;28;20111;-64
2024/03/10 09:24:02;;;;;;;12.90;7.40;;;8.40;80.50;;;;;;5041878;28;20343;-63
2024/03/10 09:26:28;;;;;;;14.57;8.05;;;8.60;80.20;;;;;;5033444;28;20104;-63
2024/03/10 09:28:55;;;;;;;15.45;7.32;;;8.60;80.30;;;;;;5032431;28;20204;-63
2024/03/10 09:31:23;;;;;;;14.48;8.27;;;8.60;80.00;;;;;;5035894;28;20025;-65
2024/03/10 09:33:49;;;;;;;16.80;8.52;;;8.70;79.60;;;;;;5030405;28;20463;-63
2024/03/10 09:36:16;;;;;;;14.98;8.00;;;8.90;79.50;;;;;;5035393;28;20033;-62
2024/03/10 09:38:44;;;;;;;15.00;7.70;;;9.00;79.10;;;;;;5029158;28;20445;-63
2024/03/10 09:41:10;;;;;;;14.48;7.97;;;9.00;78.60;;;;;;5038587;28;20039;-64
2024/03/10 09:43:40;;;;;;;14.95;7.50;;;9.10;78.90;;;;;;5034019;28;20113;-63
2024/03/10 09:46:10;;;;;;;14.27;8.05;;;8.70;78.70;;;;;;5033258;28;20025;-63
2024/03/10 09:48:36;;;;;;;13.73;7.85;;;8.80;78.20;;;;;;5035014;28;20033;-63
2024/03/10 09:51:02;;;;;;;16.25;8.40;;;9.10;79.20;;;;;;5035391;28;20033;-63
2024/03/10 09:53:28;;;;;;;15.18;7.85;;;9.00;78.00;;;;;;5034039;28;20076;-63
2024/03/10 09:55:53;;;;;;;17.95;8.52;;;8.90;78.00;;;;;;5043598;28;20435;-63
2024/03/10 09:58:25;;;;;;;13.98;7.70;;;8.90;78.70;;;;;;5036040;28;20088;-64
2024/03/10 10:00:52;;;;;;;15.50;7.95;;;9.40;78.10;;;;;;5035731;28;20729;-63
2024/03/10 10:03:19;;;;;;;15.10;7.55;;;9.10;77.50;;;;;;5041006;28;20025;-63
2024/03/10 10:05:52;;;;;;;16.25;8.48;;;9.40;77.70;;;;;;5034001;28;20110;-63
2024/03/10 10:08:18;;;;;;;14.93;8.18;;;9.50;77.80;;;;;;5040635;28;20049;-63
2024/03/10 10:10:49;;;;;;;18.88;8.75;;;9.60;76.80;;;;;;5032801;28;20040;-63
2024/03/10 10:13:24;;;;;;;;;;;9.60;76.70;;;;;;5034074;28;20076;-63
2024/03/10 10:15:52;;;;;;;14.23;7.15;;;9.60;76.40;;;;;;5035697;28;19913;-63
2024/03/10 10:18:18;;;;;;;14.27;7.68;;;9.50;75.80;;;;;;5040450;28;20351;-63
2024/03/10 10:20:48;;;;;;;13.98;7.43;;;9.60;76.40;;;;;;5039315;28;20067;-63
2024/03/10 10:23:14;;;;;;;14.38;7.88;;;9.90;75.40;;;;;;5035951;28;20038;-63
2024/03/10 10:25:42;;;;;;;15.98;7.88;;;10.10;74.70;;;;;;5034032;28;20036;-64
2024/03/10 10:28:12;;;;;;;14.80;7.45;;;10.30;75.20;;;;;;5035857;28;20089;-65
2024/03/10 10:30:40;;;;;;;14.97;7.97;;;10.30;74.10;;;;;;5034214;28;20029;-63
2024/03/10 10:33:08;;;;;;;15.00;7.85;;;10.10;74.00;;;;;;5035208;28;20371;-66
2024/03/10 10:35:38;;;;;;;14.00;8.25;;;10.40;73.40;;;;;;5032513;28;20053;-64
2024/03/10 10:38:11;;;;;;;15.55;8.88;;;9.80;73.90;;;;;;5044386;28;20041;-64
2024/03/10 10:40:48;;;;;;;14.95;7.78;;;9.90;74.40;;;;;;5043149;28;20048;-66
2024/03/10 10:43:14;;;;;;;12.40;7.30;;;10.10;73.90;;;;;;5039909;28;20468;-64
2024/03/10 10:45:43;;;;;;;16.10;8.88;;;10.30;74.10;;;;;;5033064;28;20093;-64
2024/03/10 10:48:09;;;;;;;15.38;7.95;;;10.40;73.30;;;;;;5042285;28;20021;-63
2024/03/10 10:50:34;;;;;;;14.45;7.57;;;10.90;73.70;;;;;;5039059;28;20060;-64
2024/03/10 10:53:01;;;;;;;13.80;7.20;;;10.80;72.70;;;;;;5039645;28;20325;-64
2024/03/10 10:55:28;;;;;;;17.42;8.27;;;10.60;71.40;;;;;;5038076;28;20048;-64
2024/03/10 10:57:57;;;;;;;13.27;7.30;;;10.80;72.70;;;;;;5044946;28;20075;-63
2024/03/10 11:00:29;;;;;;;13.07;6.93;;;11.00;72.10;;;;;;5035512;28;20410;-64
2024/03/10 11:03:16;;;;;;;13.90;7.30;;;11.30;72.00;;;;;;5044777;28;20050;-64
2024/03/10 11:06:03;;;;;;;12.73;6.90;;;11.60;71.50;;;;;;5040648;28;20126;-63
2024/03/10 11:08:33;;;;;;;16.85;7.93;;;11.60;70.20;;;;;;5035586;28;20041;-63
2024/03/10 11:11:00;;;;;;;15.40;7.83;;;11.60;70.30;;;;;;5032615;28;20030;-67
2024/03/10 11:13:27;;;;;;;13.80;7.82;;;11.30;70.30;;;;;;5034450;28;20026;-63
2024/03/10 11:16:23;;;;;;;19.30;9.50;;;11.60;71.10;;;;;;5036003;28;20041;-63
2024/03/10 11:18:49;;;;;;;13.93;7.32;;;11.20;70.40;;;;;;5034186;28;20406;-63
2024/03/10 11:21:20;;;;;;;13.00;6.97;;;10.80;71.70;;;;;;5039634;28;20025;-64
2024/03/10 11:23:47;;;;;;;16.90;8.38;;;11.40;71.80;;;;;;5039786;28;20120;-63
2024/03/10 11:26:17;;;;;;;14.85;7.57;;;11.50;71.00;;;;;;5040453;28;20044;-64
2024/03/10 11:28:52;;;;;;;14.10;7.03;;;11.30;71.10;;;;;;5040513;28;20033;-64
2024/03/10 11:31:23;;;;;;;14.38;8.02;;;11.30;71.00;;;;;;5036277;28;20037;-63
2024/03/10 11:33:51;;;;;;;12.43;7.28;;;11.20;70.90;;;;;;5043632;28;20449;-64
2024/03/10 11:36:16;;;;;;;14.88;7.05;;;11.20;71.00;;;;;;5041981;28;20040;-63
2024/03/10 11:38:43;;;;;;;15.02;7.90;;;11.20;70.70;;;;;;5040851;28;20029;-64
2024/03/10 11:41:09;;;;;;;17.67;8.25;;;11.00;71.00;;;;;;5039452;28;20060;-63
2024/03/10 11:43:38;;;;;;;14.52;7.20;;;11.10;72.00;;;;;;5042303;28;20048;-62
2024/03/10 11:46:23;;;;;;;17.80;8.30;;;11.00;71.70;;;;;;5036231;28;20033;-63
2024/03/10 11:48:52;;;;;;;14.85;7.70;;;10.90;72.30;;;;;;5037716;28;20021;-63
2024/03/10 11:51:21;;;;;;;13.45;7.95;;;11.00;72.00;;;;;;5041224;28;22176;-63
2024/03/10 11:53:46;;;;;;;13.60;7.20;;;10.70;72.80;;;;;;5036660;28;20037;-63
2024/03/10 11:56:14;;;;;;;14.40;7.60;;;10.80;72.90;;;;;;5039132;28;20585;-64
2024/03/10 11:58:41;;;;;;;17.67;8.13;;;10.90;72.50;;;;;;5037014;28;20058;-63
2024/03/10 12:01:08;;;;;;;16.08;7.57;;;10.80;73.30;;;;;;5035990;28;20037;-63
2024/03/10 12:03:37;;;;;;;14.13;7.53;;;10.80;72.80;;;;;;5031602;28;20044;-64
2024/03/10 12:06:05;;;;;;;14.30;7.65;;;10.90;72.60;;;;;;5035222;28;20043;-63
2024/03/10 12:08:37;;;;;;;13.82;7.28;;;10.70;73.50;;;;;;5032909;28;20107;-63
2024/03/10 12:11:04;;;;;;;15.15;7.88;;;10.60;73.60;;;;;;5034968;28;20136;-63
2024/03/10 12:13:30;;;;;;;16.27;8.40;;;10.60;74.00;;;;;;5029671;28;20059;-63
2024/03/10 12:16:01;;;;;;;15.63;7.72;;;10.70;74.20;;;;;;5039991;28;20029;-63
2024/03/10 12:18:28;;;;;;;13.90;7.80;;;10.90;73.10;;;;;;5039603;28;20088;-65
2024/03/10 12:20:57;;;;;;;13.18;7.25;;;10.90;72.80;;;;;;5035505;28;20049;-63
2024/03/10 12:23:23;;;;;;;15.85;8.18;;;10.80;73.10;;;;;;5030618;28;20397;-63
2024/03/10 12:25:51;;;;;;;13.48;7.60;;;11.20;73.10;;;;;;5033674;28;20024;-63
2024/03/10 12:28:18;;;;;;;16.75;7.85;;;11.00;73.00;;;;;;5031738;28;20036;-63
2024/03/10 12:30:44;;;;;;;15.82;8.23;;;11.10;72.70;;;;;;5032695;28;20116;-64
2024/03/10 12:33:10;;;;;;;14.07;7.00;;;11.60;72.70;;;;;;5031422;28;20519;-63
2024/03/10 12:35:38;;;;;;;13.82;7.90;;;11.70;71.80;;;;;;5033854;28;20104;-63
2024/03/10 12:38:05;;;;;;;15.00;8.07;;;11.80;70.80;;;;;;5038281;28;20114;-63
2024/03/10 12:40:34;;;;;;;15.48;8.02;;;11.80;70.50;;;;;;5034300;28;20037;-64
2024/03/10 12:43:00;;;;;;;13.75;6.85;;;12.10;70.40;;;;;;5029987;28;20042;-63
2024/03/10 12:45:27;;;;;;;13.90;7.18;;;11.90;70.60;;;;;;5029949;28;20219;-62
2024/03/10 12:47:53;;;;;;;14.05;7.10;;;12.10;69.80;;;;;;5034550;28;20104;-63
2024/03/10 12:50:19;;;;;;;15.52;7.57;;;12.10;70.20;;;;;;5030055;28;20148;-63
2024/03/10 12:52:45;;;;;;;14.50;7.40;;;12.00;70.40;;;;;;5033196;28;20060;-63
2024/03/10 12:55:11;;;;;;;14.38;7.88;;;11.60;70.10;;;;;;5032522;28;20624;-63
2024/03/10 12:57:37;;;;;;;13.95;7.45;;;11.60;71.00;;;;;;5039402;28;20031;-63
2024/03/10 13:00:23;;;;;;;13.77;7.00;;;11.50;70.60;;;;;;5036208;28;20049;-63
2024/03/10 13:02:50;;;;;;;13.30;7.35;;;11.50;70.50;;;;;;5037857;28;20500;-63
2024/03/10 13:05:16;;;;;;;15.27;7.95;;;11.40;71.50;;;;;;5028352;28;20083;-63
2024/03/10 13:07:42;;;;;;;12.57;7.20;;;11.30;72.00;;;;;;5036720;28;20104;-63